createdAt,value
2023-06-24T00:00:17.533Z,21.83
2023-06-24T00:02:46.980Z,21.87
2023-06-24T00:05:14.806Z,21.96
2023-06-24T00:07:46.712Z,21.76
2023-06-24T00:10:17.340Z,21.79
2023-06-24T00:12:47.192Z,21.77
2023-06-24T00:15:15.583Z,21.71
2023-06-24T00:17:43.566Z,21.66
2023-06-24T00:20:15.825Z,21.26
2023-06-24T00:22:45.407Z,21.68
2023-06-24T00:25:13.798Z,21.34
2023-06-24T00:27:41.815Z,21.68
2023-06-24T00:30:11.731Z,21.38
2023-06-24T00:32:39.747Z,21.37
2023-06-24T00:35:08.849Z,21.39
2023-06-24T00:37:38.095Z,21.08
2023-06-24T00:40:12.320Z,21.02
2023-06-24T00:42:40.780Z,21.10
2023-06-24T00:45:11.247Z,21.05
2023-06-24T00:47:40.173Z,21.30
2023-06-24T00:50:09.616Z,21.32
2023-06-24T00:52:43.248Z,21.48
2023-06-24T00:55:13.799Z,21.29
2023-06-24T00:57:43.156Z,20.86
2023-06-24T01:00:15.561Z,20.97
2023-06-24T01:02:44.685Z,20.88
2023-06-24T01:05:13.564Z,20.94
2023-06-24T01:07:44.589Z,21.06
2023-06-24T01:10:15.309Z,20.75
2023-06-24T01:12:45.083Z,20.87
2023-06-24T01:15:14.350Z,20.98
2023-06-24T01:17:50.093Z,20.98
2023-06-24T01:20:29.458Z,20.81
2023-06-24T01:23:57.717Z,20.80
2023-06-24T01:27:06.520Z,20.69
2023-06-24T01:29:55.334Z,20.92
2023-06-24T01:32:34.385Z,20.95
2023-06-24T01:35:11.415Z,20.95
2023-06-24T01:37:45.977Z,21.02
2023-06-24T01:40:22.995Z,20.68
2023-06-24T01:42:52.473Z,20.85
2023-06-24T01:45:27.212Z,20.99
2023-06-24T01:48:12.053Z,20.94
2023-06-24T01:50:44.876Z,20.62
2023-06-24T01:53:15.167Z,20.68
2023-06-24T01:55:46.039Z,20.41
2023-06-24T01:58:18.582Z,20.67
2023-06-24T02:00:47.378Z,20.67
2023-06-24T02:03:17.715Z,20.86
2023-06-24T02:05:49.914Z,20.94
2023-06-24T02:08:19.564Z,20.73
2023-06-24T02:10:49.612Z,20.33
2023-06-24T02:13:19.992Z,20.69
2023-06-24T02:15:52.074Z,20.77
2023-06-24T02:18:24.401Z,20.68
2023-06-24T02:20:54.301Z,20.52
2023-06-24T02:23:24.609Z,20.62
2023-06-24T02:25:57.071Z,20.70
2023-06-24T02:28:26.314Z,20.81
2023-06-24T02:30:55.244Z,20.77
2023-06-24T02:33:24.676Z,20.75
2023-06-24T02:35:52.604Z,20.58
2023-06-24T02:38:20.779Z,20.49
2023-06-24T02:40:49.197Z,20.67
2023-06-24T02:43:17.370Z,20.53
2023-06-24T02:45:46.472Z,20.48
2023-06-24T02:48:17.184Z,20.62
2023-06-24T02:50:48.183Z,20.33
2023-06-24T02:53:17.906Z,20.47
2023-06-24T02:55:47.648Z,20.45
2023-06-24T02:58:16.202Z,20.84
2023-06-24T03:00:44.107Z,20.63
2023-06-24T03:03:13.208Z,20.56
2023-06-24T03:05:42.384Z,20.58
2023-06-24T03:08:12.621Z,20.68
2023-06-24T03:10:41.872Z,20.76
2023-06-24T03:13:11.076Z,20.71
2023-06-24T03:15:39.043Z,20.73
2023-06-24T03:18:07.148Z,20.74
2023-06-24T03:20:39.885Z,20.66
2023-06-24T03:23:08.584Z,20.88
2023-06-24T03:25:37.973Z,20.79
2023-06-24T03:28:08.499Z,20.65
2023-06-24T03:30:36.594Z,20.84
2023-06-24T03:33:04.635Z,20.46
2023-06-24T03:35:33.825Z,20.41
2023-06-24T03:38:02.006Z,20.79
2023-06-24T03:40:29.901Z,20.57
2023-06-24T03:42:59.279Z,20.60
2023-06-24T03:45:27.224Z,20.43
2023-06-24T03:47:56.363Z,20.51
2023-06-24T03:50:24.318Z,20.14
2023-06-24T03:52:52.210Z,20.33
2023-06-24T03:55:20.178Z,20.41
2023-06-24T03:57:48.080Z,20.29
2023-06-24T04:00:18.916Z,20.48
2023-06-24T04:02:47.344Z,20.57
2023-06-24T04:05:15.641Z,20.63
2023-06-24T04:07:48.394Z,20.44
2023-06-24T04:10:16.621Z,20.14
2023-06-24T04:12:44.568Z,20.52
2023-06-24T04:15:13.485Z,20.49
2023-06-24T04:17:42.951Z,19.97
2023-06-24T04:20:12.165Z,20.45
2023-06-24T04:22:43.418Z,20.63
2023-06-24T04:25:11.518Z,20.47
2023-06-24T04:27:39.845Z,20.27
2023-06-24T04:30:09.380Z,20.81
2023-06-24T04:32:37.412Z,21.09
2023-06-24T04:35:07.310Z,21.22
2023-06-24T04:37:35.278Z,20.94
2023-06-24T04:40:03.838Z,21.26
2023-06-24T04:42:31.775Z,20.89
2023-06-24T04:44:59.666Z,21.42
2023-06-24T04:47:27.607Z,22.02
2023-06-24T04:49:55.528Z,21.86
2023-06-24T04:52:25.671Z,21.90
2023-06-24T04:54:53.571Z,21.61
2023-06-24T04:57:30.869Z,22.48
2023-06-24T05:00:00.994Z,21.91
2023-06-24T05:02:35.481Z,21.37
2023-06-24T05:05:03.517Z,21.66
2023-06-24T05:07:34.225Z,21.76
2023-06-24T05:10:02.301Z,22.01
2023-06-24T05:12:30.214Z,21.50
2023-06-24T05:14:58.199Z,21.62
2023-06-24T05:17:26.631Z,21.66
2023-06-24T05:19:54.588Z,21.51
2023-06-24T05:22:22.629Z,21.55
2023-06-24T05:24:52.080Z,21.69
2023-06-24T05:27:19.995Z,21.63
2023-06-24T05:29:48.008Z,21.70
2023-06-24T05:32:18.300Z,22.05
2023-06-24T05:34:46.510Z,21.94
2023-06-24T05:37:14.713Z,23.04
2023-06-24T05:39:42.612Z,23.16
2023-06-24T05:42:11.952Z,23.79
2023-06-24T05:44:39.893Z,23.44
2023-06-24T05:47:08.085Z,24.76
2023-06-24T05:49:36.416Z,25.36
2023-06-24T05:52:04.868Z,25.45
2023-06-24T05:54:32.948Z,25.80
2023-06-24T05:57:00.816Z,25.99
2023-06-24T05:59:32.416Z,26.76
2023-06-24T06:02:02.455Z,26.38
2023-06-24T06:04:31.732Z,27.16
2023-06-24T06:06:59.691Z,26.45
2023-06-24T06:09:27.670Z,27.10
2023-06-24T06:11:55.687Z,27.57
2023-06-24T06:14:23.631Z,27.64
2023-06-24T06:16:52.920Z,27.15
2023-06-24T06:19:21.999Z,27.42
2023-06-24T06:21:51.327Z,28.08
2023-06-24T06:24:19.430Z,27.93
2023-06-24T06:26:47.432Z,28.43
2023-06-24T06:29:15.450Z,28.27
2023-06-24T06:31:43.430Z,28.39
2023-06-24T06:34:12.756Z,29.20
2023-06-24T06:36:40.717Z,29.56
2023-06-24T06:39:08.636Z,30.15
2023-06-24T06:41:36.666Z,29.44
2023-06-24T06:44:04.594Z,29.28
2023-06-24T06:46:33.149Z,28.74
2023-06-24T06:49:01.543Z,29.20
2023-06-24T06:51:30.862Z,30.02
2023-06-24T06:53:59.021Z,29.47
2023-06-24T06:56:27.786Z,29.53
2023-06-24T06:58:56.296Z,29.44
2023-06-24T07:01:24.430Z,29.93
2023-06-24T07:03:54.007Z,30.55
2023-06-24T07:06:22.290Z,31.23
2023-06-24T07:08:52.085Z,30.37
2023-06-24T07:11:20.320Z,30.99
2023-06-24T07:13:51.871Z,30.10
2023-06-24T07:16:20.033Z,31.15
2023-06-24T07:18:48.010Z,30.07
2023-06-24T07:21:15.932Z,31.51
2023-06-24T07:23:43.871Z,31.98
2023-06-24T07:26:13.344Z,31.45
2023-06-24T07:28:42.487Z,32.29
2023-06-24T07:31:11.275Z,31.81
2023-06-24T07:33:39.294Z,31.98
2023-06-24T07:36:08.970Z,30.00
2023-06-24T07:38:37.836Z,30.54
2023-06-24T07:41:05.905Z,31.29
2023-06-24T07:43:35.271Z,31.37
2023-06-24T07:46:03.936Z,29.77
2023-06-24T07:48:31.859Z,30.45
2023-06-24T07:51:00.293Z,29.93
2023-06-24T07:53:28.392Z,29.48
2023-06-24T07:55:56.399Z,30.35
2023-06-24T07:58:24.325Z,30.00
2023-06-24T08:00:54.128Z,31.17
2023-06-24T08:03:22.876Z,30.47
2023-06-24T08:05:51.580Z,30.78
2023-06-24T08:08:21.794Z,30.13
2023-06-24T08:10:50.284Z,30.44
2023-06-24T08:13:18.193Z,30.67
2023-06-24T08:15:46.538Z,30.81
2023-06-24T08:18:15.924Z,30.78
2023-06-24T08:20:44.445Z,30.53
2023-06-24T08:23:12.344Z,31.28
2023-06-24T08:25:40.397Z,30.92
2023-06-24T08:28:08.345Z,31.66
2023-06-24T08:30:36.310Z,31.88
2023-06-24T08:33:04.420Z,30.59
2023-06-24T08:35:33.821Z,31.27
2023-06-24T08:38:02.091Z,31.71
2023-06-24T08:40:31.791Z,31.39
2023-06-24T08:43:00.506Z,31.23
2023-06-24T08:45:28.445Z,32.86
2023-06-24T08:47:57.927Z,31.90
2023-06-24T08:50:33.232Z,31.46
2023-06-24T08:53:07.554Z,32.27
2023-06-24T08:55:44.455Z,32.70
2023-06-24T08:58:12.564Z,33.10
2023-06-24T09:00:40.667Z,33.59
2023-06-24T09:03:08.708Z,32.30
2023-06-24T09:05:37.005Z,33.27
2023-06-24T09:08:07.083Z,33.78
2023-06-24T09:10:37.254Z,34.38
2023-06-24T09:13:07.666Z,32.54
2023-06-24T09:15:37.994Z,33.76
2023-06-24T09:18:07.369Z,33.60
2023-06-24T09:20:40.659Z,33.94
2023-06-24T09:23:10.220Z,34.04
2023-06-24T09:25:38.946Z,33.13
2023-06-24T09:28:07.285Z,33.79
2023-06-24T09:30:35.242Z,34.07
2023-06-24T09:33:03.956Z,33.08
2023-06-24T09:35:38.494Z,33.30
2023-06-24T09:38:06.639Z,33.30
2023-06-24T09:40:38.276Z,33.31
2023-06-24T09:43:10.144Z,33.86
2023-06-24T09:45:38.306Z,34.54
2023-06-24T09:48:07.171Z,33.43
2023-06-24T09:50:36.220Z,33.20
2023-06-24T09:53:05.101Z,34.18
2023-06-24T09:55:33.598Z,34.26
2023-06-24T09:58:03.715Z,36.25
2023-06-24T10:00:31.824Z,34.36
2023-06-24T10:03:01.126Z,34.45
2023-06-24T10:05:30.182Z,35.73
2023-06-24T10:07:58.085Z,34.92
2023-06-24T10:10:26.075Z,36.27
2023-06-24T10:12:54.331Z,35.41
2023-06-24T10:15:24.399Z,33.92
2023-06-24T10:18:01.182Z,34.04
2023-06-24T10:20:40.337Z,34.41
2023-06-24T10:23:08.834Z,35.46
2023-06-24T10:25:39.342Z,35.23
2023-06-24T10:28:07.450Z,34.71
2023-06-24T10:30:39.181Z,34.53
2023-06-24T10:33:12.690Z,33.88
2023-06-24T10:35:45.196Z,34.18
2023-06-24T10:38:13.192Z,35.01
2023-06-24T10:40:44.602Z,34.69
2023-06-24T10:43:30.831Z,36.35
2023-06-24T10:46:01.186Z,35.47
2023-06-24T10:48:29.559Z,36.12
2023-06-24T10:50:57.522Z,35.10
2023-06-24T10:53:25.534Z,34.54
2023-06-24T10:55:53.565Z,34.75
2023-06-24T10:58:21.758Z,36.17
2023-06-24T11:00:51.029Z,35.36
2023-06-24T11:03:21.401Z,35.34
2023-06-24T11:05:51.173Z,35.76
2023-06-24T11:08:19.171Z,34.78
2023-06-24T11:10:48.599Z,34.82
2023-06-24T11:13:17.500Z,35.94
2023-06-24T11:15:45.387Z,35.73
2023-06-24T11:18:13.625Z,35.29
2023-06-24T11:20:43.862Z,36.68
2023-06-24T11:23:13.114Z,36.68
2023-06-24T11:25:43.090Z,35.84
2023-06-24T11:28:23.052Z,35.23
2023-06-24T11:30:51.956Z,35.96
2023-06-24T11:33:29.939Z,36.51
2023-06-24T11:35:59.587Z,36.92
2023-06-24T11:38:33.172Z,35.44
2023-06-24T11:41:01.352Z,36.25
2023-06-24T11:43:30.205Z,34.85
2023-06-24T11:45:58.154Z,36.99
2023-06-24T11:48:30.749Z,37.24
2023-06-24T11:51:00.318Z,36.10
2023-06-24T11:53:44.296Z,36.60
2023-06-24T11:56:12.566Z,36.29
2023-06-24T11:58:41.426Z,34.92
2023-06-24T12:01:09.912Z,35.28
2023-06-24T12:03:37.847Z,35.41
2023-06-24T12:06:07.452Z,34.30
2023-06-24T12:08:50.645Z,34.09
2023-06-24T12:11:20.099Z,34.07
2023-06-24T12:13:48.138Z,33.57
2023-06-24T12:16:16.158Z,33.38
2023-06-24T12:18:44.050Z,34.16
2023-06-24T12:21:13.996Z,33.75
2023-06-24T12:23:41.914Z,34.35
2023-06-24T12:26:09.778Z,34.66
2023-06-24T12:28:37.685Z,35.38
2023-06-24T12:31:05.692Z,33.81
2023-06-24T12:33:33.683Z,34.17
2023-06-24T12:36:01.712Z,32.81
2023-06-24T12:38:30.990Z,33.84
2023-06-24T12:40:59.791Z,35.28
2023-06-24T12:43:27.725Z,34.82
2023-06-24T12:45:57.118Z,34.89
2023-06-24T12:48:25.090Z,35.18
2023-06-24T12:50:54.363Z,35.23
2023-06-24T12:53:23.442Z,36.49
2023-06-24T12:55:52.682Z,36.59
2023-06-24T12:58:26.047Z,37.01
2023-06-24T13:00:54.252Z,35.58
2023-06-24T13:03:22.462Z,36.28
2023-06-24T13:05:50.334Z,34.33
2023-06-24T13:08:18.253Z,35.76
2023-06-24T13:10:46.232Z,35.46
2023-06-24T13:13:15.828Z,36.49
2023-06-24T13:15:43.712Z,36.28
2023-06-24T13:18:11.603Z,36.36
2023-06-24T13:20:39.500Z,33.69
2023-06-24T13:23:07.457Z,34.23
2023-06-24T13:25:35.874Z,33.74
2023-06-24T13:28:04.149Z,34.98
2023-06-24T13:30:33.673Z,33.02
2023-06-24T13:33:01.787Z,33.69
2023-06-24T13:35:29.793Z,33.84
2023-06-24T13:37:59.347Z,34.42
2023-06-24T13:40:27.298Z,33.33
2023-06-24T13:42:55.295Z,32.58
2023-06-24T13:45:23.180Z,32.41
2023-06-24T13:47:52.620Z,32.75
2023-06-24T13:50:20.889Z,32.94
2023-06-24T13:52:48.796Z,32.50
2023-06-24T13:55:17.045Z,32.65
2023-06-24T13:57:44.945Z,32.26
2023-06-24T14:00:15.410Z,32.20
2023-06-24T14:02:43.563Z,32.60
2023-06-24T14:05:13.201Z,32.64
2023-06-24T14:07:41.084Z,33.14
2023-06-24T14:10:09.922Z,33.73
2023-06-24T14:12:38.570Z,32.53
2023-06-24T14:15:07.793Z,32.41
2023-06-24T14:17:35.798Z,32.89
2023-06-24T14:20:04.294Z,32.77
2023-06-24T14:22:33.869Z,33.11
2023-06-24T14:25:01.857Z,32.65
2023-06-24T14:27:29.836Z,33.47
2023-06-24T14:29:57.805Z,32.50
2023-06-24T14:32:27.821Z,32.86
2023-06-24T14:34:56.702Z,32.32
2023-06-24T14:37:24.609Z,32.24
2023-06-24T14:39:53.957Z,31.74
2023-06-24T14:42:22.038Z,31.84
2023-06-24T14:44:49.868Z,32.28
2023-06-24T14:47:17.830Z,32.03
2023-06-24T14:49:45.739Z,31.47
2023-06-24T14:52:13.684Z,31.17
2023-06-24T14:54:41.513Z,31.59
2023-06-24T14:57:10.666Z,31.21
2023-06-24T14:59:38.584Z,31.14
2023-06-24T15:02:07.135Z,31.24
2023-06-24T15:04:35.183Z,31.32
2023-06-24T15:07:03.133Z,31.70
2023-06-24T15:09:31.062Z,31.80
2023-06-24T15:11:58.980Z,31.87
2023-06-24T15:14:28.209Z,31.49
2023-06-24T15:16:59.091Z,31.92
2023-06-24T15:19:27.088Z,32.52
2023-06-24T15:21:55.536Z,31.77
2023-06-24T15:24:23.559Z,31.44
2023-06-24T15:26:51.436Z,31.16
2023-06-24T15:29:19.345Z,31.48
2023-06-24T15:31:48.925Z,31.75
2023-06-24T15:34:16.839Z,31.68
2023-06-24T15:36:45.244Z,32.07
2023-06-24T15:39:13.861Z,31.72
2023-06-24T15:41:41.823Z,31.75
2023-06-24T15:44:09.766Z,31.58
2023-06-24T15:46:38.639Z,32.09
2023-06-24T15:49:07.739Z,32.41
2023-06-24T15:51:35.632Z,32.80
2023-06-24T15:54:03.676Z,32.43
2023-06-24T15:56:31.668Z,32.88
2023-06-24T15:58:59.692Z,32.75
2023-06-24T16:01:27.579Z,31.89
2023-06-24T16:03:56.859Z,32.68
2023-06-24T16:06:26.308Z,32.10
2023-06-24T16:08:54.489Z,31.77
2023-06-24T16:11:22.400Z,31.67
2023-06-24T16:13:50.418Z,31.49
2023-06-24T16:16:18.610Z,31.06
2023-06-24T16:18:46.568Z,31.18
2023-06-24T16:21:14.514Z,31.87
2023-06-24T16:23:43.871Z,31.77
2023-06-24T16:26:11.797Z,31.12
2023-06-24T16:28:39.786Z,31.88
2023-06-24T16:31:07.839Z,32.22
2023-06-24T16:33:36.008Z,31.25
2023-06-24T16:36:04.065Z,31.62
2023-06-24T16:38:32.025Z,32.40
2023-06-24T16:41:02.425Z,32.34
2023-06-24T16:43:30.318Z,31.73
2023-06-24T16:45:58.326Z,31.78
2023-06-24T16:48:26.255Z,32.09
2023-06-24T16:50:54.150Z,31.60
2023-06-24T16:53:22.091Z,31.94
2023-06-24T16:55:50.020Z,32.02
2023-06-24T16:58:19.269Z,31.07
2023-06-24T17:00:47.126Z,31.26
2023-06-24T17:03:15.188Z,31.49
2023-06-24T17:05:43.766Z,30.90
2023-06-24T17:08:12.578Z,31.00
2023-06-24T17:10:40.914Z,31.04
2023-06-24T17:13:08.857Z,30.62
2023-06-24T17:15:38.046Z,30.60
2023-06-24T17:18:06.222Z,30.49
2023-06-24T17:20:34.516Z,30.27
2023-06-24T17:23:02.604Z,30.38
2023-06-24T17:25:30.607Z,30.21
2023-06-24T17:27:58.636Z,30.02
2023-06-24T17:30:26.953Z,29.91
2023-06-24T17:32:56.405Z,30.64
2023-06-24T17:35:24.290Z,30.54
2023-06-24T17:37:52.252Z,30.56
2023-06-24T17:40:20.250Z,29.83
2023-06-24T17:42:48.281Z,29.71
2023-06-24T17:45:16.215Z,29.93
2023-06-24T17:47:44.192Z,29.74
2023-06-24T17:50:13.722Z,29.75
2023-06-24T17:52:42.629Z,29.37
2023-06-24T17:55:10.976Z,29.18
2023-06-24T17:57:38.903Z,29.23
2023-06-24T18:00:10.473Z,29.26
2023-06-24T18:02:38.619Z,29.19
2023-06-24T18:05:07.914Z,29.42
2023-06-24T18:07:37.382Z,29.02
2023-06-24T18:10:05.986Z,28.96
2023-06-24T18:12:33.871Z,29.10
2023-06-24T18:15:01.716Z,29.06
2023-06-24T18:17:29.751Z,28.95
2023-06-24T18:19:57.821Z,28.90
2023-06-24T18:22:25.846Z,28.65
2023-06-24T18:24:55.554Z,28.63
2023-06-24T18:27:25.094Z,28.80
2023-06-24T18:29:53.741Z,28.87
2023-06-24T18:32:22.436Z,28.60
2023-06-24T18:34:50.690Z,29.04
2023-06-24T18:37:18.655Z,28.82
2023-06-24T18:39:46.612Z,28.89
2023-06-24T18:42:15.966Z,29.69
2023-06-24T18:44:43.899Z,29.82
2023-06-24T18:47:11.785Z,29.35
2023-06-24T18:49:39.785Z,29.76
2023-06-24T18:52:08.730Z,29.93
2023-06-24T18:54:36.450Z,30.05
2023-06-24T18:57:04.818Z,29.41
2023-06-24T18:59:34.081Z,29.86
2023-06-24T19:02:02.013Z,29.95
2023-06-24T19:04:31.526Z,29.50
2023-06-24T19:07:00.854Z,29.50
2023-06-24T19:09:28.901Z,29.04
2023-06-24T19:11:56.817Z,28.76
2023-06-24T19:14:24.795Z,29.09
2023-06-24T19:16:54.112Z,29.13
2023-06-24T19:19:22.043Z,28.84
2023-06-24T19:21:49.973Z,28.51
2023-06-24T19:24:18.715Z,28.68
2023-06-24T19:26:46.728Z,28.54
2023-06-24T19:29:14.821Z,28.65
2023-06-24T19:31:42.790Z,28.56
2023-06-24T19:34:12.582Z,28.70
2023-06-24T19:36:40.599Z,28.88
2023-06-24T19:39:08.546Z,28.68
2023-06-24T19:41:36.483Z,28.76
2023-06-24T19:44:07.293Z,29.02
2023-06-24T19:46:41.207Z,28.74
2023-06-24T19:49:11.863Z,28.73
2023-06-24T19:51:40.387Z,28.42
2023-06-24T19:54:08.624Z,28.50
2023-06-24T19:56:36.687Z,28.53
2023-06-24T19:59:04.759Z,28.63
2023-06-24T20:01:32.749Z,28.54
2023-06-24T20:04:00.812Z,28.39
2023-06-24T20:06:30.279Z,28.21
2023-06-24T20:08:58.298Z,28.22
2023-06-24T20:11:26.210Z,27.95
2023-06-24T20:13:54.053Z,27.92
2023-06-24T20:16:21.938Z,27.65
2023-06-24T20:18:50.357Z,26.93
2023-06-24T20:21:18.560Z,27.00
2023-06-24T20:23:47.913Z,26.79
2023-06-24T20:26:15.794Z,26.61
2023-06-24T20:28:43.782Z,26.61
2023-06-24T20:31:11.816Z,25.83
2023-06-24T20:33:39.743Z,25.64
2023-06-24T20:36:09.213Z,25.49
2023-06-24T20:38:37.496Z,25.50
2023-06-24T20:41:06.771Z,25.21
2023-06-24T20:43:34.718Z,25.31
2023-06-24T20:46:02.786Z,25.37
2023-06-24T20:48:30.923Z,25.50
2023-06-24T20:50:58.883Z,25.17
2023-06-24T20:53:26.811Z,25.12
2023-06-24T20:55:54.774Z,24.97
2023-06-24T20:58:24.021Z,24.95
2023-06-24T21:00:51.941Z,25.02
2023-06-24T21:03:19.972Z,24.72
2023-06-24T21:05:48.069Z,24.72
2023-06-24T21:08:16.057Z,24.46
2023-06-24T21:10:43.929Z,24.43
2023-06-24T21:13:11.883Z,24.31
2023-06-24T21:15:41.194Z,24.17
2023-06-24T21:18:08.955Z,24.38
2023-06-24T21:20:37.108Z,24.39
2023-06-24T21:23:05.296Z,24.27
2023-06-24T21:25:33.333Z,24.50
2023-06-24T21:28:01.300Z,24.30
2023-06-24T21:30:29.387Z,24.43
2023-06-24T21:32:58.878Z,24.23
2023-06-24T21:35:26.914Z,24.07
2023-06-24T21:37:54.862Z,24.10
2023-06-24T21:40:22.750Z,24.20
2023-06-24T21:42:50.722Z,24.21
2023-06-24T21:45:19.444Z,24.15
2023-06-24T21:47:47.413Z,24.15
2023-06-24T21:50:16.752Z,24.10
2023-06-24T21:52:44.774Z,23.82
2023-06-24T21:55:13.350Z,23.78
2023-06-24T21:57:44.325Z,23.90
2023-06-24T22:00:19.138Z,23.95
2023-06-24T22:02:47.968Z,23.74
2023-06-24T22:05:33.145Z,23.79
2023-06-24T22:08:03.886Z,23.68
2023-06-24T22:10:32.538Z,23.59
2023-06-24T22:13:00.568Z,23.58
2023-06-24T22:15:28.623Z,23.53
2023-06-24T22:17:56.570Z,23.77
2023-06-24T22:20:25.972Z,23.32
2023-06-24T22:22:54.232Z,23.49
2023-06-24T22:25:22.454Z,23.22
2023-06-24T22:27:50.611Z,23.18
2023-06-24T22:30:18.986Z,23.20
2023-06-24T22:32:46.938Z,23.63
2023-06-24T22:35:15.135Z,23.26
2023-06-24T22:37:44.909Z,23.29
2023-06-24T22:40:13.250Z,23.13
2023-06-24T22:42:41.601Z,23.32
2023-06-24T22:45:12.862Z,23.12
2023-06-24T22:47:42.207Z,23.05
2023-06-24T22:50:11.881Z,22.83
2023-06-24T22:52:39.846Z,23.01
2023-06-24T22:55:10.649Z,22.96
2023-06-24T22:57:39.214Z,22.80
2023-06-24T23:00:09.023Z,23.05
2023-06-24T23:02:37.681Z,22.93
2023-06-24T23:05:07.167Z,22.92
2023-06-24T23:07:35.703Z,22.75
2023-06-24T23:10:04.778Z,22.60
2023-06-24T23:12:35.834Z,22.71
2023-06-24T23:15:04.825Z,22.52
2023-06-24T23:17:33.463Z,22.64
2023-06-24T23:20:02.740Z,22.59
2023-06-24T23:22:31.346Z,22.49
2023-06-24T23:25:00.161Z,22.49
2023-06-24T23:27:37.592Z,22.86
2023-06-24T23:30:09.448Z,22.73
2023-06-24T23:32:42.353Z,22.52
2023-06-24T23:35:12.866Z,22.48
2023-06-24T23:37:41.555Z,22.50
2023-06-24T23:40:11.409Z,22.39
2023-06-24T23:42:43.272Z,22.38
2023-06-24T23:45:14.103Z,22.33
2023-06-24T23:47:42.121Z,22.29
2023-06-24T23:50:10.944Z,22.14
2023-06-24T23:52:39.382Z,22.19
2023-06-24T23:55:09.660Z,22.25
2023-06-24T23:57:37.786Z,22.03
